sensor_id;sensor_type;location;lat;lon;timestamp;pressure;altitude;pressure_sealevel;temperature;humidity
6343;BME280;3204;42.698;23.298;2023-03-01T00:01:11;95400.31;;;7.04;96.75
6343;BME280;3204;42.698;23.298;2023-03-01T00:03:37;95383.41;;;6.93;97.78
6343;BME280;3204;42.698;23.298;2023-03-01T00:06:03;95380.94;;;7.02;97.51
6343;BME280;3204;42.698;23.298;2023-03-01T00:08:29;95381.75;;;7.02;96.95
6343;BME280;3204;42.698;23.298;2023-03-01T00:11:12;95393.34;;;6.98;97.80
6343;BME280;3204;42.698;23.298;2023-03-01T00:13:38;95380.41;;;7.00;97.24
6343;BME280;3204;42.698;23.298;2023-03-01T00:16:06;95382.53;;;7.03;96.91
6343;BME280;3204;42.698;23.298;2023-03-01T00:18:32;95376.66;;;6.96;96.62
6343;BME280;3204;42.698;23.298;2023-03-01T00:20:58;95366.94;;;6.90;97.08
6343;BME280;3204;42.698;23.298;2023-03-01T00:23:24;95370.72;;;6.94;97.55
6343;BME280;3204;42.698;23.298;2023-03-01T00:25:50;95364.28;;;6.80;96.93
6343;BME280;3204;42.698;23.298;2023-03-01T00:28:15;95356.75;;;6.82;98.11
6343;BME280;3204;42.698;23.298;2023-03-01T00:30:41;95357.25;;;6.89;97.00
6343;BME280;3204;42.698;23.298;2023-03-01T00:33:07;95352.97;;;6.78;97.27
6343;BME280;3204;42.698;23.298;2023-03-01T00:35:33;95343.81;;;6.74;97.63
6343;BME280;3204;42.698;23.298;2023-03-01T00:37:59;95350.28;;;6.78;97.42
6343;BME280;3204;42.698;23.298;2023-03-01T00:40:25;95347.56;;;6.83;97.34
6343;BME280;3204;42.698;23.298;2023-03-01T00:42:51;95340.59;;;6.77;96.68
6343;BME280;3204;42.698;23.298;2023-03-01T00:45:16;95334.97;;;6.63;97.28
6343;BME280;3204;42.698;23.298;2023-03-01T00:47:42;95339.84;;;6.61;97.82
6343;BME280;3204;42.698;23.298;2023-03-01T00:50:09;95336.59;;;6.54;97.77
6343;BME280;3204;42.698;23.298;2023-03-01T00:52:34;95335.75;;;6.69;97.17
6343;BME280;3204;42.698;23.298;2023-03-01T00:55:00;95335.50;;;6.70;97.60
6343;BME280;3204;42.698;23.298;2023-03-01T00:57:26;95339.53;;;6.73;96.89
6343;BME280;3204;42.698;23.298;2023-03-01T00:59:51;95331.72;;;6.71;97.43
6343;BME280;3204;42.698;23.298;2023-03-01T01:02:20;95335.78;;;6.64;97.58
6343;BME280;3204;42.698;23.298;2023-03-01T01:04:46;95343.34;;;6.57;97.64
6343;BME280;3204;42.698;23.298;2023-03-01T01:07:12;95332.56;;;6.62;97.36
6343;BME280;3204;42.698;23.298;2023-03-01T01:09:38;95343.34;;;6.62;97.51
6343;BME280;3204;42.698;23.298;2023-03-01T01:12:04;95343.56;;;6.70;97.45
6343;BME280;3204;42.698;23.298;2023-03-01T01:14:29;95336.56;;;6.74;96.76
6343;BME280;3204;42.698;23.298;2023-03-01T01:16:55;95346.78;;;6.77;96.04
6343;BME280;3204;42.698;23.298;2023-03-01T01:19:22;95337.91;;;6.72;96.49
6343;BME280;3204;42.698;23.298;2023-03-01T01:21:48;95334.44;;;6.61;97.59
6343;BME280;3204;42.698;23.298;2023-03-01T01:24:14;95333.09;;;6.64;96.97
6343;BME280;3204;42.698;23.298;2023-03-01T01:26:40;95344.69;;;6.59;97.44
6343;BME280;3204;42.698;23.298;2023-03-01T01:29:07;95330.13;;;6.60;96.89
6343;BME280;3204;42.698;23.298;2023-03-01T01:31:33;95332.84;;;6.60;96.84
6343;BME280;3204;42.698;23.298;2023-03-01T01:34:00;95330.69;;;6.57;96.74
6343;BME280;3204;42.698;23.298;2023-03-01T01:36:26;95337.66;;;6.63;96.11
6343;BME280;3204;42.698;23.298;2023-03-01T01:38:52;95347.91;;;6.66;95.73
6343;BME280;3204;42.698;23.298;2023-03-01T01:41:19;95353.56;;;6.65;95.83
6343;BME280;3204;42.698;23.298;2023-03-01T01:43:48;95350.34;;;6.63;95.23
6343;BME280;3204;42.698;23.298;2023-03-01T01:48:49;95348.75;;;6.62;95.05
6343;BME280;3204;42.698;23.298;2023-03-01T01:51:20;95356.53;;;6.63;94.59
6343;BME280;3204;42.698;23.298;2023-03-01T01:53:51;95348.75;;;6.62;94.51
6343;BME280;3204;42.698;23.298;2023-03-01T01:56:18;95340.09;;;6.60;94.05
6343;BME280;3204;42.698;23.298;2023-03-01T01:58:45;95345.50;;;6.55;94.54
6343;BME280;3204;42.698;23.298;2023-03-01T02:01:12;95330.97;;;6.51;93.93
6343;BME280;3204;42.698;23.298;2023-03-01T02:03:39;95331.75;;;6.56;94.19
6343;BME280;3204;42.698;23.298;2023-03-01T02:06:28;95327.97;;;6.62;94.07
6343;BME280;3204;42.698;23.298;2023-03-01T02:08:59;95322.28;;;6.69;93.83
6343;BME280;3204;42.698;23.298;2023-03-01T02:11:27;95323.66;;;6.66;92.51
6343;BME280;3204;42.698;23.298;2023-03-01T02:13:54;95304.50;;;6.68;92.09
6343;BME280;3204;42.698;23.298;2023-03-01T02:16:20;95311.75;;;6.72;91.33
6343;BME280;3204;42.698;23.298;2023-03-01T02:18:46;95305.00;;;6.75;91.34
6343;BME280;3204;42.698;23.298;2023-03-01T02:23:42;95313.13;;;6.70;90.84
6343;BME280;3204;42.698;23.298;2023-03-01T02:26:12;95316.06;;;6.73;90.94
6343;BME280;3204;42.698;23.298;2023-03-01T02:28:43;95313.13;;;6.70;91.29
6343;BME280;3204;42.698;23.298;2023-03-01T02:31:11;95314.72;;;6.81;90.81
6343;BME280;3204;42.698;23.298;2023-03-01T02:33:59;95322.78;;;6.86;90.72
6343;BME280;3204;42.698;23.298;2023-03-01T02:36:29;95321.72;;;6.77;90.13
6343;BME280;3204;42.698;23.298;2023-03-01T02:38:58;95330.59;;;6.77;90.33
6343;BME280;3204;42.698;23.298;2023-03-01T02:41:26;95335.19;;;6.77;91.00
6343;BME280;3204;42.698;23.298;2023-03-01T02:43:53;95328.72;;;6.83;90.74
6343;BME280;3204;42.698;23.298;2023-03-01T02:46:22;95317.91;;;6.88;90.86
6343;BME280;3204;42.698;23.298;2023-03-01T02:48:51;95324.91;;;6.89;90.39
6343;BME280;3204;42.698;23.298;2023-03-01T02:56:45;95319.00;;;6.82;91.20
6343;BME280;3204;42.698;23.298;2023-03-01T02:59:16;95326.28;;;6.81;91.44
6343;BME280;3204;42.698;23.298;2023-03-01T03:01:41;95322.44;;;6.92;91.20
6343;BME280;3204;42.698;23.298;2023-03-01T03:04:10;95328.72;;;6.83;91.50
6343;BME280;3204;42.698;23.298;2023-03-01T03:06:36;95326.31;;;6.71;92.21
6343;BME280;3204;42.698;23.298;2023-03-01T03:09:02;95323.34;;;6.73;92.37
6343;BME280;3204;42.698;23.298;2023-03-01T03:11:28;95320.94;;;6.66;92.36
6343;BME280;3204;42.698;23.298;2023-03-01T03:13:53;95326.84;;;6.68;92.49
6343;BME280;3204;42.698;23.298;2023-03-01T03:16:19;95315.06;;;6.54;92.73
6343;BME280;3204;42.698;23.298;2023-03-01T03:18:46;95325.56;;;6.56;92.98
6343;BME280;3204;42.698;23.298;2023-03-01T03:21:12;95334.47;;;6.56;93.44
6343;BME280;3204;42.698;23.298;2023-03-01T03:23:38;95325.81;;;6.69;93.27
6343;BME280;3204;42.698;23.298;2023-03-01T03:26:05;95332.25;;;6.78;92.67
6343;BME280;3204;42.698;23.298;2023-03-01T03:28:34;95330.69;;;6.57;93.41
6343;BME280;3204;42.698;23.298;2023-03-01T03:31:00;95333.63;;;6.61;93.66
6343;BME280;3204;42.698;23.298;2023-03-01T03:33:32;95338.22;;;6.60;93.64
6343;BME280;3204;42.698;23.298;2023-03-01T03:35:58;95329.88;;;6.52;93.44
6343;BME280;3204;42.698;23.298;2023-03-01T03:38:23;95336.91;;;6.48;94.40
6343;BME280;3204;42.698;23.298;2023-03-01T03:41:01;95335.88;;;6.34;94.86
6343;BME280;3204;42.698;23.298;2023-03-01T03:43:28;95337.47;;;6.40;94.43
6343;BME280;3204;42.698;23.298;2023-03-01T03:45:53;95336.13;;;6.37;94.68
6343;BME280;3204;42.698;23.298;2023-03-01T03:48:19;95333.44;;;6.37;94.69
6343;BME280;3204;42.698;23.298;2023-03-01T03:50:53;95344.22;;;6.32;94.50
6343;BME280;3204;42.698;23.298;2023-03-01T03:53:20;95344.75;;;6.29;95.08
6343;BME280;3204;42.698;23.298;2023-03-01T03:55:45;95346.94;;;6.27;94.97
6343;BME280;3204;42.698;23.298;2023-03-01T03:58:15;95341.81;;;6.26;94.75
6343;BME280;3204;42.698;23.298;2023-03-01T04:00:43;95343.66;;;6.30;95.00
6343;BME280;3204;42.698;23.298;2023-03-01T04:03:09;95343.13;;;6.33;94.59
6343;BME280;3204;42.698;23.298;2023-03-01T04:05:36;95338.56;;;6.34;94.74
6343;BME280;3204;42.698;23.298;2023-03-01T04:08:02;95336.41;;;6.36;95.51
6343;BME280;3204;42.698;23.298;2023-03-01T04:10:32;95350.38;;;6.48;94.50
6343;BME280;3204;42.698;23.298;2023-03-01T04:12:58;95346.09;;;6.37;94.27
6343;BME280;3204;42.698;23.298;2023-03-01T04:15:24;95348.00;;;6.36;94.86
6343;BME280;3204;42.698;23.298;2023-03-01T04:17:52;95346.09;;;6.37;94.50
6343;BME280;3204;42.698;23.298;2023-03-01T04:20:21;95347.41;;;6.44;95.00
6343;BME280;3204;42.698;23.298;2023-03-01T04:23:00;95345.56;;;6.35;94.70
6343;BME280;3204;42.698;23.298;2023-03-01T04:28:19;95336.16;;;6.22;95.91
6343;BME280;3204;42.698;23.298;2023-03-01T04:30:45;95337.50;;;6.20;95.46
6343;BME280;3204;42.698;23.298;2023-03-01T04:33:11;95346.09;;;6.32;95.61
6343;BME280;3204;42.698;23.298;2023-03-01T04:35:37;95335.88;;;6.29;95.99
6343;BME280;3204;42.698;23.298;2023-03-01T04:38:04;95345.31;;;6.31;95.28
6343;BME280;3204;42.698;23.298;2023-03-01T04:40:29;95337.22;;;6.31;95.53
6343;BME280;3204;42.698;23.298;2023-03-01T04:42:55;95338.00;;;6.32;94.99
6343;BME280;3204;42.698;23.298;2023-03-01T04:45:21;95330.50;;;6.29;95.05
6343;BME280;3204;42.698;23.298;2023-03-01T04:47:47;95336.44;;;6.11;95.92
6343;BME280;3204;42.698;23.298;2023-03-01T04:50:15;95330.00;;;6.07;96.05
6343;BME280;3204;42.698;23.298;2023-03-01T04:52:42;95333.19;;;6.14;96.21
6343;BME280;3204;42.698;23.298;2023-03-01T04:55:07;95326.75;;;6.20;95.58
6343;BME280;3204;42.698;23.298;2023-03-01T04:57:33;95328.59;;;6.24;95.56
6343;BME280;3204;42.698;23.298;2023-03-01T04:59:59;95327.28;;;6.12;95.77
6343;BME280;3204;42.698;23.298;2023-03-01T05:02:24;95321.38;;;6.00;95.91
6343;BME280;3204;42.698;23.298;2023-03-01T05:04:50;95333.19;;;6.09;96.45
6343;BME280;3204;42.698;23.298;2023-03-01T05:07:15;95330.00;;;5.97;96.43
6343;BME280;3204;42.698;23.298;2023-03-01T05:09:47;95336.47;;;6.06;96.81
6343;BME280;3204;42.698;23.298;2023-03-01T05:12:13;95326.22;;;6.03;97.11
6343;BME280;3204;42.698;23.298;2023-03-01T05:14:39;95332.94;;;6.15;96.47
6343;BME280;3204;42.698;23.298;2023-03-01T05:17:05;95334.81;;;6.25;96.40
6343;BME280;3204;42.698;23.298;2023-03-01T05:19:31;95343.97;;;6.24;95.95
6343;BME280;3204;42.698;23.298;2023-03-01T05:21:58;95338.59;;;6.24;96.39
6343;BME280;3204;42.698;23.298;2023-03-01T05:24:27;95342.63;;;6.16;95.89
6343;BME280;3204;42.698;23.298;2023-03-01T05:26:52;95343.97;;;6.24;95.91
6343;BME280;3204;42.698;23.298;2023-03-01T05:29:22;95336.41;;;6.26;96.00
6343;BME280;3204;42.698;23.298;2023-03-01T05:31:56;95330.78;;;6.17;95.96
6343;BME280;3204;42.698;23.298;2023-03-01T05:34:34;95340.97;;;6.30;96.25
6343;BME280;3204;42.698;23.298;2023-03-01T05:37:01;95338.00;;;6.42;95.43
6343;BME280;3204;42.698;23.298;2023-03-01T05:39:28;95346.66;;;6.34;95.40
6343;BME280;3204;42.698;23.298;2023-03-01T05:41:55;95348.28;;;6.25;95.04
6343;BME280;3204;42.698;23.298;2023-03-01T05:44:21;95343.16;;;6.18;96.20
6343;BME280;3204;42.698;23.298;2023-03-01T05:46:47;95356.91;;;6.17;95.99
6343;BME280;3204;42.698;23.298;2023-03-01T05:49:14;95346.94;;;6.27;95.54
6343;BME280;3204;42.698;23.298;2023-03-01T05:51:41;95346.38;;;6.20;96.17
6343;BME280;3204;42.698;23.298;2023-03-01T05:54:07;95353.94;;;6.18;96.59
6343;BME280;3204;42.698;23.298;2023-03-01T05:56:34;95366.06;;;6.11;96.53
6343;BME280;3204;42.698;23.298;2023-03-01T05:59:00;95355.84;;;5.98;97.05
6343;BME280;3204;42.698;23.298;2023-03-01T06:01:26;95370.91;;;5.99;96.88
6343;BME280;3204;42.698;23.298;2023-03-01T06:03:51;95367.16;;;6.05;96.83
6343;BME280;3204;42.698;23.298;2023-03-01T06:06:17;95370.91;;;6.09;96.95
6343;BME280;3204;42.698;23.298;2023-03-01T06:08:42;95382.50;;;5.99;97.16
6343;BME280;3204;42.698;23.298;2023-03-01T06:11:08;95378.44;;;6.07;97.15
6343;BME280;3204;42.698;23.298;2023-03-01T06:13:33;95377.34;;;6.13;96.89
6343;BME280;3204;42.698;23.298;2023-03-01T06:15:58;95383.56;;;6.03;96.71
6343;BME280;3204;42.698;23.298;2023-03-01T06:18:24;95385.19;;;6.09;96.40
6343;BME280;3204;42.698;23.298;2023-03-01T06:20:53;95381.41;;;6.15;96.89
6343;BME280;3204;42.698;23.298;2023-03-01T06:23:19;95381.41;;;6.15;96.63
6343;BME280;3204;42.698;23.298;2023-03-01T06:25:44;95389.22;;;6.07;97.26
6343;BME280;3204;42.698;23.298;2023-03-01T06:28:10;95387.31;;;6.02;97.07
6343;BME280;3204;42.698;23.298;2023-03-01T06:30:35;95383.56;;;5.98;97.19
6343;BME280;3204;42.698;23.298;2023-03-01T06:33:01;95378.97;;;5.99;97.51
6343;BME280;3204;42.698;23.298;2023-03-01T06:35:29;95383.03;;;5.96;97.67
6343;BME280;3204;42.698;23.298;2023-03-01T06:37:56;95383.84;;;5.97;97.17
6343;BME280;3204;42.698;23.298;2023-03-01T06:40:22;95387.06;;;6.09;96.92
6343;BME280;3204;42.698;23.298;2023-03-01T06:42:49;95380.63;;;6.10;96.76
6343;BME280;3204;42.698;23.298;2023-03-01T06:45:16;95383.00;;;6.06;97.22
6343;BME280;3204;42.698;23.298;2023-03-01T06:47:41;95383.84;;;6.07;96.29
6343;BME280;3204;42.698;23.298;2023-03-01T06:50:07;95381.41;;;6.00;96.22
6343;BME280;3204;42.698;23.298;2023-03-01T06:52:33;95388.69;;;6.10;95.91
6343;BME280;3204;42.698;23.298;2023-03-01T06:54:58;95385.16;;;6.14;96.04
6343;BME280;3204;42.698;23.298;2023-03-01T06:57:24;95382.75;;;6.18;95.56
6343;BME280;3204;42.698;23.298;2023-03-01T06:59:50;95389.72;;;6.19;95.40
6343;BME280;3204;42.698;23.298;2023-03-01T07:02:16;95385.44;;;6.23;95.05
6343;BME280;3204;42.698;23.298;2023-03-01T07:04:42;95387.03;;;6.14;95.28
6343;BME280;3204;42.698;23.298;2023-03-01T07:07:08;95386.50;;;6.27;95.78
6343;BME280;3204;42.698;23.298;2023-03-01T07:09:33;95392.69;;;6.32;94.98
6343;BME280;3204;42.698;23.298;2023-03-01T07:11:59;95390.03;;;6.17;94.94
6343;BME280;3204;42.698;23.298;2023-03-01T07:14:24;95384.09;;;6.20;95.17
6343;BME280;3204;42.698;23.298;2023-03-01T07:16:51;95389.19;;;6.32;95.18
6343;BME280;3204;42.698;23.298;2023-03-01T07:19:17;95387.06;;;6.34;94.94
6343;BME280;3204;42.698;23.298;2023-03-01T07:21:42;95387.31;;;6.27;95.18
6343;BME280;3204;42.698;23.298;2023-03-01T07:24:08;95384.63;;;6.27;95.60
6343;BME280;3204;42.698;23.298;2023-03-01T07:26:34;95376.56;;;6.27;95.45
6343;BME280;3204;42.698;23.298;2023-03-01T07:29:00;95371.94;;;6.33;95.35
6343;BME280;3204;42.698;23.298;2023-03-01T07:31:26;95380.59;;;6.35;95.03
6343;BME280;3204;42.698;23.298;2023-03-01T07:33:53;95375.44;;;6.43;94.94
6343;BME280;3204;42.698;23.298;2023-03-01T07:36:19;95374.31;;;6.54;95.01
6343;BME280;3204;42.698;23.298;2023-03-01T07:38:45;95370.03;;;6.53;93.98
6343;BME280;3204;42.698;23.298;2023-03-01T07:41:12;95372.97;;;6.57;94.05
6343;BME280;3204;42.698;23.298;2023-03-01T07:43:37;95377.78;;;6.70;93.24
6343;BME280;3204;42.698;23.298;2023-03-01T07:46:03;95376.97;;;6.84;92.91
6343;BME280;3204;42.698;23.298;2023-03-01T07:48:30;95373.69;;;6.87;91.87
6343;BME280;3204;42.698;23.298;2023-03-01T07:51:00;95374.53;;;6.83;92.58
6343;BME280;3204;42.698;23.298;2023-03-01T07:53:26;95375.91;;;6.75;92.40
6343;BME280;3204;42.698;23.298;2023-03-01T07:58:27;95368.91;;;6.74;92.48
6343;BME280;3204;42.698;23.298;2023-03-01T08:00:53;95368.34;;;6.77;91.23
6343;BME280;3204;42.698;23.298;2023-03-01T08:03:18;95365.34;;;6.89;91.50
6343;BME280;3204;42.698;23.298;2023-03-01T08:05:44;95369.91;;;6.98;90.39
6343;BME280;3204;42.698;23.298;2023-03-01T08:08:09;95361.81;;;6.93;89.60
6343;BME280;3204;42.698;23.298;2023-03-01T08:10:36;95360.75;;;6.94;89.61
6343;BME280;3204;42.698;23.298;2023-03-01T08:13:02;95360.44;;;7.01;89.36
6343;BME280;3204;42.698;23.298;2023-03-01T08:15:27;95358.09;;;6.84;89.37
6343;BME280;3204;42.698;23.298;2023-03-01T08:17:52;95355.06;;;6.96;89.37
6343;BME280;3204;42.698;23.298;2023-03-01T08:20:18;95363.94;;;6.96;89.06
6343;BME280;3204;42.698;23.298;2023-03-01T08:22:43;95367.25;;;6.88;89.96
6343;BME280;3204;42.698;23.298;2023-03-01T08:25:09;95350.22;;;6.93;89.77
6343;BME280;3204;42.698;23.298;2023-03-01T08:27:35;95364.19;;;7.10;89.19
6343;BME280;3204;42.698;23.298;2023-03-01T08:30:00;95342.31;;;7.11;89.02
6343;BME280;3204;42.698;23.298;2023-03-01T08:32:26;95352.84;;;7.08;88.10
6343;BME280;3204;42.698;23.298;2023-03-01T08:34:51;95352.03;;;7.12;89.10
6343;BME280;3204;42.698;23.298;2023-03-01T08:37:17;95357.69;;;7.11;88.72
6343;BME280;3204;42.698;23.298;2023-03-01T08:39:42;95356.03;;;7.20;88.53
6343;BME280;3204;42.698;23.298;2023-03-01T08:42:08;95348.72;;;7.25;88.98
6343;BME280;3204;42.698;23.298;2023-03-01T08:44:33;95349.50;;;7.31;87.79
6343;BME280;3204;42.698;23.298;2023-03-01T08:47:00;95356.78;;;7.30;87.98
6343;BME280;3204;42.698;23.298;2023-03-01T08:49:27;95346.97;;;7.44;87.30
6343;BME280;3204;42.698;23.298;2023-03-01T08:51:53;95360.13;;;7.56;87.03
6343;BME280;3204;42.698;23.298;2023-03-01T08:54:20;95346.38;;;7.57;87.79
6343;BME280;3204;42.698;23.298;2023-03-01T09:06:51;95356.22;;;8.10;83.31
6343;BME280;3204;42.698;23.298;2023-03-01T09:09:17;95348.59;;;8.22;81.71
6343;BME280;3204;42.698;23.298;2023-03-01T09:11:43;95355.16;;;8.11;82.22
6343;BME280;3204;42.698;23.298;2023-03-01T09:14:12;95354.28;;;8.16;82.25
6343;BME280;3204;42.698;23.298;2023-03-01T09:16:37;95361.28;;;8.17;81.12
6343;BME280;3204;42.698;23.298;2023-03-01T09:19:03;95363.44;;;8.20;81.45
6343;BME280;3204;42.698;23.298;2023-03-01T09:21:29;95355.84;;;8.27;81.88
6343;BME280;3204;42.698;23.298;2023-03-01T09:23:56;95351.63;;;8.11;81.29
6343;BME280;3204;42.698;23.298;2023-03-01T09:26:22;95370.66;;;8.29;nan
6343;BME280;3204;42.698;23.298;2023-03-01T09:28:50;95356.97;;;8.21;81.24
6343;BME280;3204;42.698;23.298;2023-03-01T09:31:16;95351.47;;;8.31;81.10
6343;BME280;3204;42.698;23.298;2023-03-01T09:33:45;95353.13;;;8.27;81.39
6343;BME280;3204;42.698;23.298;2023-03-01T09:36:15;95361.50;;;8.30;81.00
6343;BME280;3204;42.698;23.298;2023-03-01T09:38:42;95349.59;;;8.31;81.10
6343;BME280;3204;42.698;23.298;2023-03-01T09:46:09;95347.69;;;8.32;81.43
6343;BME280;3204;42.698;23.298;2023-03-01T09:48:46;95342.38;;;8.17;81.98
6343;BME280;3204;42.698;23.298;2023-03-01T09:51:34;95343.56;;;8.06;82.54
6343;BME280;3204;42.698;23.298;2023-03-01T09:54:02;95341.38;;;8.08;82.63
6343;BME280;3204;42.698;23.298;2023-03-01T10:06:40;95311.31;;;8.48;80.73
6343;BME280;3204;42.698;23.298;2023-03-01T10:09:12;95308.81;;;8.28;81.11
6343;BME280;3204;42.698;23.298;2023-03-01T10:11:43;95323.31;;;8.37;81.95
6343;BME280;3204;42.698;23.298;2023-03-01T10:14:34;95318.81;;;8.27;80.70
6343;BME280;3204;42.698;23.298;2023-03-01T10:17:04;95326.91;;;8.27;81.75
6343;BME280;3204;42.698;23.298;2023-03-01T10:19:35;95309.16;;;8.21;80.28
6343;BME280;3204;42.698;23.298;2023-03-01T10:22:16;95320.97;;;8.30;81.38
6343;BME280;3204;42.698;23.298;2023-03-01T10:24:43;95315.69;;;8.44;81.02
6343;BME280;3204;42.698;23.298;2023-03-01T10:27:23;95309.75;;;8.65;80.49
6343;BME280;3204;42.698;23.298;2023-03-01T10:32:43;95301.69;;;8.37;80.85
6343;BME280;3204;42.698;23.298;2023-03-01T10:35:21;95305.25;;;8.56;80.84
6343;BME280;3204;42.698;23.298;2023-03-01T10:38:04;95296.41;;;8.74;79.77
6343;BME280;3204;42.698;23.298;2023-03-01T10:40:31;95289.38;;;8.96;79.20
6343;BME280;3204;42.698;23.298;2023-03-01T10:42:59;95299.38;;;8.96;78.40
6343;BME280;3204;42.698;23.298;2023-03-01T10:45:38;95301.31;;;9.14;77.87
6343;BME280;3204;42.698;23.298;2023-03-01T10:48:13;95297.22;;;9.16;78.57
6343;BME280;3204;42.698;23.298;2023-03-01T10:50:40;95290.84;;;9.07;77.69
6343;BME280;3204;42.698;23.298;2023-03-01T10:53:25;95292.34;;;9.37;76.67
6343;BME280;3204;42.698;23.298;2023-03-01T10:58:29;95285.16;;;9.09;77.03
6343;BME280;3204;42.698;23.298;2023-03-01T11:01:47;95292.09;;;9.33;76.26
6343;BME280;3204;42.698;23.298;2023-03-01T11:04:12;95298.09;;;9.49;76.10
6343;BME280;3204;42.698;23.298;2023-03-01T11:06:40;95300.56;;;9.08;75.52
6343;BME280;3204;42.698;23.298;2023-03-01T11:09:18;95294.31;;;8.89;76.85
6343;BME280;3204;42.698;23.298;2023-03-01T11:11:44;95310.75;;;8.74;77.04
6343;BME280;3204;42.698;23.298;2023-03-01T11:14:16;95294.91;;;8.86;78.55
6343;BME280;3204;42.698;23.298;2023-03-01T11:16:45;95301.47;;;8.80;78.81
6343;BME280;3204;42.698;23.298;2023-03-01T11:21:43;95285.34;;;8.94;77.93
6343;BME280;3204;42.698;23.298;2023-03-01T11:24:13;95276.38;;;8.98;77.47
6343;BME280;3204;42.698;23.298;2023-03-01T11:26:42;95280.81;;;9.08;77.06
6343;BME280;3204;42.698;23.298;2023-03-01T11:29:26;95277.41;;;9.02;77.51
6343;BME280;3204;42.698;23.298;2023-03-01T11:31:55;95276.78;;;8.87;77.84
6343;BME280;3204;42.698;23.298;2023-03-01T11:37:34;95272.59;;;8.76;78.25
6343;BME280;3204;42.698;23.298;2023-03-01T11:40:24;95273.25;;;8.86;78.07
6343;BME280;3204;42.698;23.298;2023-03-01T11:42:59;95263.94;;;8.97;78.13
6343;BME280;3204;42.698;23.298;2023-03-01T11:45:35;95261.78;;;8.76;78.40
6343;BME280;3204;42.698;23.298;2023-03-01T11:48:28;95259.16;;;8.89;78.73
6343;BME280;3204;42.698;23.298;2023-03-01T11:51:02;95244.53;;;8.72;78.73
6343;BME280;3204;42.698;23.298;2023-03-01T11:56:35;95243.78;;;8.66;80.40
6343;BME280;3204;42.698;23.298;2023-03-01T12:07:01;95237.66;;;8.61;80.93
6343;BME280;3204;42.698;23.298;2023-03-01T12:12:47;95234.81;;;8.71;80.00
6343;BME280;3204;42.698;23.298;2023-03-01T12:23:51;95226.84;;;8.98;78.91
6343;BME280;3204;42.698;23.298;2023-03-01T12:26:30;95234.59;;;8.86;79.81
6343;BME280;3204;42.698;23.298;2023-03-01T12:31:44;95227.59;;;9.03;79.32
6343;BME280;3204;42.698;23.298;2023-03-01T12:39:51;95217.53;;;9.09;78.64
6343;BME280;3204;42.698;23.298;2023-03-01T12:48:24;95214.66;;;9.19;77.94
6343;BME280;3204;42.698;23.298;2023-03-01T12:50:58;95213.25;;;9.03;78.29
6343;BME280;3204;42.698;23.298;2023-03-01T12:53:34;95212.09;;;8.90;79.15
6343;BME280;3204;42.698;23.298;2023-03-01T12:56:10;95214.88;;;9.04;79.23
6343;BME280;3204;42.698;23.298;2023-03-01T13:06:36;95219.50;;;9.54;77.47
6343;BME280;3204;42.698;23.298;2023-03-01T13:11:32;95215.44;;;9.38;77.95
6343;BME280;3204;42.698;23.298;2023-03-01T13:14:35;95220.13;;;9.32;77.98
6343;BME280;3204;42.698;23.298;2023-03-01T13:17:01;95215.16;;;9.21;78.47
6343;BME280;3204;42.698;23.298;2023-03-01T13:19:28;95216.78;;;9.03;79.51
6343;BME280;3204;42.698;23.298;2023-03-01T13:22:30;95213.03;;;8.81;80.54
6343;BME280;3204;42.698;23.298;2023-03-01T13:25:19;95218.06;;;8.69;80.81
6343;BME280;3204;42.698;23.298;2023-03-01T13:27:46;95211.09;;;8.44;nan
6343;BME280;3204;42.698;23.298;2023-03-01T13:35:50;95223.69;;;8.72;82.06
6343;BME280;3204;42.698;23.298;2023-03-01T13:41:03;95219.22;;;8.63;82.30
6343;BME280;3204;42.698;23.298;2023-03-01T13:43:35;95208.28;;;8.73;81.58
6343;BME280;3204;42.698;23.298;2023-03-01T13:46:22;95212.72;;;8.64;81.87
6343;BME280;3204;42.698;23.298;2023-03-01T13:48:53;95216.25;;;8.83;81.08
6343;BME280;3204;42.698;23.298;2023-03-01T13:51:23;95206.19;;;8.88;81.83
6343;BME280;3204;42.698;23.298;2023-03-01T13:53:51;95207.13;;;8.97;80.86
6343;BME280;3204;42.698;23.298;2023-03-01T13:56:25;95206.03;;;8.98;82.00
6343;BME280;3204;42.698;23.298;2023-03-01T14:01:31;95198.50;;;8.77;81.80
6343;BME280;3204;42.698;23.298;2023-03-01T14:07:23;95198.09;;;8.65;82.44
6343;BME280;3204;42.698;23.298;2023-03-01T14:09:58;95201.97;;;8.59;83.68
6343;BME280;3204;42.698;23.298;2023-03-01T14:21:39;95195.75;;;8.58;83.85
6343;BME280;3204;42.698;23.298;2023-03-01T14:24:05;95203.50;;;8.65;83.71
6343;BME280;3204;42.698;23.298;2023-03-01T14:26:32;95190.13;;;8.55;84.46
6343;BME280;3204;42.698;23.298;2023-03-01T14:28:58;95201.22;;;8.53;83.93
6343;BME280;3204;42.698;23.298;2023-03-01T14:31:44;95188.72;;;8.57;83.80
6343;BME280;3204;42.698;23.298;2023-03-01T14:34:20;95191.22;;;8.54;83.99
6343;BME280;3204;42.698;23.298;2023-03-01T14:36:46;95192.75;;;8.60;84.54
6343;BME280;3204;42.698;23.298;2023-03-01T14:39:19;95190.59;;;8.62;84.08
6343;BME280;3204;42.698;23.298;2023-03-01T14:41:48;95191.16;;;8.59;85.33
6343;BME280;3204;42.698;23.298;2023-03-01T14:44:22;95195.59;;;8.50;84.20
6343;BME280;3204;42.698;23.298;2023-03-01T14:46:52;95191.47;;;8.34;84.95
6343;BME280;3204;42.698;23.298;2023-03-01T14:49:24;95190.28;;;8.21;84.83
6343;BME280;3204;42.698;23.298;2023-03-01T14:51:59;95188.84;;;8.29;85.63
6343;BME280;3204;42.698;23.298;2023-03-01T14:56:59;95187.81;;;8.25;86.35
6343;BME280;3204;42.698;23.298;2023-03-01T14:59:25;95187.75;;;8.30;85.49
6343;BME280;3204;42.698;23.298;2023-03-01T15:01:53;95182.56;;;8.33;85.11
6343;BME280;3204;42.698;23.298;2023-03-01T15:04:22;95177.97;;;8.34;85.31
6343;BME280;3204;42.698;23.298;2023-03-01T15:06:54;95174.16;;;8.35;84.93
6343;BME280;3204;42.698;23.298;2023-03-01T15:09:21;95182.06;;;8.31;85.59
6343;BME280;3204;42.698;23.298;2023-03-01T15:11:47;95173.84;;;8.13;85.67
6343;BME280;3204;42.698;23.298;2023-03-01T15:14:39;95170.09;;;8.14;86.66
6343;BME280;3204;42.698;23.298;2023-03-01T15:17:21;95178.75;;;8.11;86.53
6343;BME280;3204;42.698;23.298;2023-03-01T15:19:51;95172.88;;;8.04;86.34
6343;BME280;3204;42.698;23.298;2023-03-01T15:22:17;95181.41;;;7.92;86.78
6343;BME280;3204;42.698;23.298;2023-03-01T15:24:48;95165.75;;;7.89;87.56
6343;BME280;3204;42.698;23.298;2023-03-01T15:27:18;95168.19;;;7.91;87.83
6343;BME280;3204;42.698;23.298;2023-03-01T15:29:53;95175.06;;;8.02;86.96
6343;BME280;3204;42.698;23.298;2023-03-01T15:32:27;95188.06;;;8.00;86.95
6343;BME280;3204;42.698;23.298;2023-03-01T15:34:52;95181.84;;;7.99;87.67
6343;BME280;3204;42.698;23.298;2023-03-01T15:37:44;95167.84;;;7.97;87.20